createdAt,value
2023-05-01T00:03:59.199Z,6.37
2023-05-01T00:08:16.238Z,5.45
2023-05-01T00:12:32.557Z,6.60
2023-05-01T00:16:48.893Z,6.45
2023-05-01T00:21:05.393Z,6.35
2023-05-01T00:25:21.959Z,6.28
2023-05-01T00:29:38.264Z,5.80
2023-05-01T00:33:54.573Z,5.30
2023-05-01T00:38:11.018Z,5.45
2023-05-01T00:42:27.229Z,5.00
2023-05-01T00:46:44.150Z,4.90
2023-05-01T00:51:01.158Z,4.95
2023-05-01T00:55:17.726Z,5.35
2023-05-01T00:59:33.962Z,5.47
2023-05-01T01:03:52.005Z,5.03
2023-05-01T01:08:30.693Z,5.10
2023-05-01T01:13:14.002Z,5.05
2023-05-01T01:17:48.692Z,6.07
2023-05-01T01:22:13.019Z,5.45
2023-05-01T01:26:40.800Z,5.60
2023-05-01T01:30:57.140Z,5.78
2023-05-01T01:35:21.182Z,4.90
2023-05-01T01:40:03.032Z,5.95
2023-05-01T01:44:38.042Z,5.40
2023-05-01T01:48:56.626Z,5.60
2023-05-01T01:53:15.383Z,5.78
2023-05-01T01:57:32.360Z,5.93
2023-05-01T02:01:49.632Z,6.05
2023-05-01T02:06:06.933Z,5.68
2023-05-01T02:10:24.339Z,5.78
2023-05-01T02:14:41.465Z,6.07
2023-05-01T02:18:58.240Z,5.50
2023-05-01T02:23:15.305Z,5.62
2023-05-01T02:27:35.174Z,5.28
2023-05-01T02:31:51.564Z,5.68
2023-05-01T02:36:08.542Z,5.57
2023-05-01T02:40:25.097Z,5.72
2023-05-01T02:44:45.577Z,6.45
2023-05-01T02:49:03.048Z,6.55
2023-05-01T02:53:20.201Z,6.65
2023-05-01T02:57:36.861Z,6.50
2023-05-01T03:01:53.201Z,6.22
2023-05-01T03:06:09.773Z,5.97
2023-05-01T03:10:25.965Z,6.30
2023-05-01T03:14:42.386Z,5.60
2023-05-01T03:18:58.683Z,5.25
2023-05-01T03:23:14.970Z,5.68
2023-05-01T03:27:31.631Z,5.97
2023-05-01T03:31:47.885Z,5.62
2023-05-01T03:36:06.311Z,5.30
2023-05-01T03:40:22.615Z,5.78
2023-05-01T03:44:38.849Z,6.37
2023-05-01T03:48:55.578Z,5.30
2023-05-01T03:53:12.174Z,5.47
2023-05-01T03:57:28.474Z,5.50
2023-05-01T04:01:45.262Z,5.43
2023-05-01T04:06:01.812Z,5.15
2023-05-01T04:10:18.122Z,4.70
2023-05-01T04:14:34.369Z,4.62
2023-05-01T04:18:51.132Z,5.55
2023-05-01T04:23:07.917Z,4.75
2023-05-01T04:27:25.103Z,4.60
2023-05-01T04:31:41.965Z,4.60
2023-05-01T04:35:58.322Z,4.82
2023-05-01T04:40:15.392Z,4.40
2023-05-01T04:44:34.405Z,5.05
2023-05-01T04:48:50.722Z,4.90
2023-05-01T04:53:07.022Z,5.12
2023-05-01T04:57:23.203Z,4.57
2023-05-01T05:01:39.516Z,4.20
2023-05-01T05:05:55.933Z,4.75
2023-05-01T05:10:12.192Z,4.55
2023-05-01T05:14:28.408Z,4.87
2023-05-01T05:18:44.683Z,4.60
2023-05-01T05:23:00.976Z,3.90
2023-05-01T05:27:17.231Z,4.37
2023-05-01T05:31:33.478Z,4.40
2023-05-01T05:35:49.804Z,3.30
2023-05-01T05:40:06.541Z,3.80
2023-05-01T05:44:23.019Z,3.40
2023-05-01T05:48:39.366Z,2.97
2023-05-01T05:52:55.953Z,2.87
2023-05-01T05:57:12.144Z,3.30
2023-05-01T06:01:28.304Z,3.30
2023-05-01T06:05:45.401Z,3.00
2023-05-01T06:10:05.328Z,3.00
2023-05-01T06:14:21.651Z,2.95
2023-05-01T06:18:37.870Z,3.17
2023-05-01T06:22:54.165Z,2.47
2023-05-01T06:27:10.648Z,2.85
2023-05-01T06:31:27.622Z,2.60
2023-05-01T06:35:43.890Z,2.60
2023-05-01T06:40:00.164Z,3.05
2023-05-01T06:44:16.757Z,2.70
2023-05-01T06:48:33.085Z,2.70
2023-05-01T06:52:49.386Z,2.45
2023-05-01T06:57:05.794Z,2.90
2023-05-01T07:01:22.323Z,2.70
2023-05-01T07:05:40.616Z,2.30
2023-05-01T07:09:57.118Z,2.62
2023-05-01T07:14:13.496Z,2.70
2023-05-01T07:18:30.218Z,2.72
2023-05-01T07:22:46.534Z,2.50
2023-05-01T07:27:02.728Z,2.70
2023-05-01T07:31:19.089Z,2.20
2023-05-01T07:35:35.396Z,2.15
2023-05-01T07:39:51.606Z,2.17
2023-05-01T07:44:07.877Z,2.53
2023-05-01T07:48:24.178Z,2.40
2023-05-01T07:52:40.480Z,2.60
2023-05-01T07:56:56.677Z,2.20
2023-05-01T08:01:12.948Z,2.95
2023-05-01T08:05:29.316Z,2.35
2023-05-01T08:09:46.692Z,2.30
2023-05-01T08:14:04.022Z,1.95
2023-05-01T08:18:21.338Z,2.10
2023-05-01T08:22:37.892Z,1.90
2023-05-01T08:26:54.224Z,2.28
2023-05-01T08:31:10.562Z,2.10
2023-05-01T08:35:27.050Z,2.28
2023-05-01T08:39:43.362Z,2.17
2023-05-01T08:44:01.651Z,2.50
2023-05-01T08:48:19.185Z,2.28
2023-05-01T08:52:35.699Z,2.30
2023-05-01T08:56:53.682Z,2.00
2023-05-01T09:01:13.774Z,2.20
2023-05-01T09:05:32.938Z,2.30
2023-05-01T09:09:49.260Z,2.00
2023-05-01T09:14:05.896Z,2.40
2023-05-01T09:18:22.166Z,2.22
2023-05-01T09:22:38.888Z,2.40
2023-05-01T09:26:55.417Z,2.20
2023-05-01T09:31:28.922Z,2.12
2023-05-01T09:35:55.308Z,2.22
2023-05-01T09:40:13.341Z,1.95
2023-05-01T09:44:29.650Z,2.05
2023-05-01T09:48:57.153Z,2.12
2023-05-01T09:53:13.927Z,2.03
2023-05-01T09:57:38.535Z,2.45
2023-05-01T10:01:54.889Z,1.90
2023-05-01T10:06:11.422Z,2.03
2023-05-01T10:10:28.124Z,2.12
2023-05-01T10:14:54.768Z,2.25
2023-05-01T10:19:11.442Z,1.90
2023-05-01T10:23:28.247Z,1.80
2023-05-01T10:27:44.543Z,1.90
2023-05-01T10:32:01.830Z,1.85
2023-05-01T10:36:34.649Z,1.98
2023-05-01T10:40:51.422Z,1.70
2023-05-01T10:45:30.318Z,2.03
2023-05-01T10:50:17.961Z,1.98
2023-05-01T10:54:34.291Z,1.75
2023-05-01T10:59:01.130Z,1.85
2023-05-01T11:03:23.121Z,2.20
2023-05-01T11:07:39.374Z,1.67
2023-05-01T11:11:56.176Z,1.70
2023-05-01T11:16:38.546Z,1.50
2023-05-01T11:20:54.988Z,1.87
2023-05-01T11:25:22.881Z,1.52
2023-05-01T11:29:39.256Z,1.60
2023-05-01T11:34:00.344Z,1.90
2023-05-01T11:38:19.715Z,2.03
2023-05-01T11:42:36.017Z,1.85
2023-05-01T11:47:01.446Z,1.77
2023-05-01T11:51:19.299Z,1.60
2023-05-01T11:55:36.234Z,1.92
2023-05-01T11:59:52.748Z,2.00
2023-05-01T12:04:09.540Z,1.58
2023-05-01T12:08:26.197Z,1.73
2023-05-01T12:12:42.775Z,2.17
2023-05-01T12:16:59.118Z,1.58
2023-05-01T12:21:17.968Z,2.00
2023-05-01T12:25:35.295Z,1.67
2023-05-01T12:29:51.798Z,1.80
2023-05-01T12:34:08.270Z,1.83
2023-05-01T12:38:24.855Z,1.83
2023-05-01T12:42:42.043Z,1.75
2023-05-01T12:47:09.180Z,1.70
2023-05-01T12:51:27.796Z,1.70
2023-05-01T12:55:46.328Z,1.50
2023-05-01T13:00:07.611Z,1.40
2023-05-01T13:04:24.922Z,1.40
2023-05-01T13:08:41.255Z,1.40
2023-05-01T13:12:57.690Z,1.67
2023-05-01T13:17:23.162Z,1.50
2023-05-01T13:21:46.418Z,1.55
2023-05-01T13:26:04.615Z,1.55
2023-05-01T13:30:30.914Z,1.55
2023-05-01T13:34:47.414Z,1.90
2023-05-01T13:39:04.061Z,1.40
2023-05-01T13:43:22.552Z,1.50
2023-05-01T13:47:41.987Z,1.55
2023-05-01T13:51:58.362Z,1.50
2023-05-01T13:56:16.939Z,1.58
2023-05-01T14:00:33.286Z,1.60
2023-05-01T14:04:49.814Z,1.40
2023-05-01T14:09:06.232Z,1.60
2023-05-01T14:13:22.469Z,1.30
2023-05-01T14:17:38.915Z,1.50
2023-05-01T14:21:55.302Z,1.30
2023-05-01T14:26:12.167Z,1.58
2023-05-01T14:30:40.368Z,1.45
2023-05-01T14:34:57.490Z,1.20
2023-05-01T14:39:15.991Z,1.75
2023-05-01T14:43:33.412Z,1.30
2023-05-01T14:47:50.618Z,1.67
2023-05-01T14:52:08.273Z,1.52
2023-05-01T14:56:25.680Z,1.45
2023-05-01T15:00:41.901Z,1.40
2023-05-01T15:04:58.405Z,1.50
2023-05-01T15:09:14.995Z,1.62
2023-05-01T15:13:32.341Z,1.40
2023-05-01T15:17:48.768Z,1.40
2023-05-01T15:22:05.119Z,1.35
2023-05-01T15:26:21.659Z,1.33
2023-05-01T15:30:37.917Z,1.50
2023-05-01T15:34:57.246Z,1.48
2023-05-01T15:39:13.677Z,1.55
2023-05-01T15:43:30.768Z,1.70
2023-05-01T15:47:47.056Z,1.48
2023-05-01T15:52:03.425Z,1.50
2023-05-01T15:56:19.686Z,1.40
2023-05-01T16:00:38.321Z,1.60
2023-05-01T16:04:54.853Z,1.20
2023-05-01T16:09:11.154Z,1.30
2023-05-01T16:13:27.328Z,1.35
2023-05-01T16:17:44.762Z,1.35
2023-05-01T16:22:04.516Z,2.05
2023-05-01T16:26:28.002Z,2.20
2023-05-01T16:30:45.933Z,1.65
2023-05-01T16:35:03.670Z,1.48
2023-05-01T16:39:22.057Z,1.27
2023-05-01T16:43:38.417Z,1.50
2023-05-01T16:47:55.487Z,1.50
2023-05-01T16:52:14.392Z,1.75
2023-05-01T16:56:30.775Z,1.25
2023-05-01T17:00:47.219Z,1.48
2023-05-01T17:05:03.967Z,1.48
2023-05-01T17:09:20.336Z,1.60
2023-05-01T17:13:36.709Z,1.40
2023-05-01T17:17:53.092Z,1.77
2023-05-01T17:22:09.429Z,1.77
2023-05-01T17:26:25.706Z,1.73
2023-05-01T17:30:41.942Z,1.73
2023-05-01T17:34:58.782Z,1.60
2023-05-01T17:39:15.234Z,1.20
2023-05-01T17:43:31.571Z,1.25
2023-05-01T17:47:48.178Z,1.52
2023-05-01T17:52:05.290Z,1.80
2023-05-01T17:56:21.980Z,1.45
2023-05-01T18:00:38.297Z,1.73
2023-05-01T18:04:55.533Z,1.70
2023-05-01T18:09:12.135Z,1.80
2023-05-01T18:13:29.465Z,1.87
2023-05-01T18:17:45.713Z,1.50
2023-05-01T18:22:04.335Z,1.45
2023-05-01T18:26:21.438Z,1.50
2023-05-01T18:30:37.977Z,1.48
2023-05-01T18:34:55.091Z,1.25
2023-05-01T18:39:11.801Z,1.48
2023-05-01T18:43:28.083Z,1.50
2023-05-01T18:47:44.772Z,1.40
2023-05-01T18:52:01.328Z,1.52
2023-05-01T18:56:17.853Z,1.58
2023-05-01T19:00:34.255Z,1.58
2023-05-01T19:04:57.321Z,2.00
2023-05-01T19:09:13.947Z,1.50
2023-05-01T19:13:30.129Z,2.00
2023-05-01T19:17:46.629Z,1.60
2023-05-01T19:22:02.932Z,1.60
2023-05-01T19:26:19.205Z,1.75
2023-05-01T19:30:35.426Z,1.80
2023-05-01T19:34:51.682Z,1.60
2023-05-01T19:39:07.938Z,2.10
2023-05-01T19:43:24.763Z,1.48
2023-05-01T19:47:41.039Z,1.40
2023-05-01T19:51:57.831Z,1.87
2023-05-01T19:56:14.312Z,1.73
2023-05-01T20:00:31.305Z,1.77
2023-05-01T20:04:47.794Z,1.75
2023-05-01T20:09:04.293Z,1.60
2023-05-01T20:13:20.484Z,1.58
2023-05-01T20:17:37.016Z,1.77
2023-05-01T20:21:53.290Z,1.45
2023-05-01T20:26:09.967Z,1.42
2023-05-01T20:30:26.233Z,1.50
2023-05-01T20:34:42.689Z,1.77
2023-05-01T20:38:59.009Z,1.70
2023-05-01T20:43:15.222Z,1.67
2023-05-01T20:47:32.529Z,1.67
2023-05-01T20:51:49.094Z,1.65
2023-05-01T20:56:05.800Z,2.10
2023-05-01T21:00:22.139Z,2.10
2023-05-01T21:04:38.461Z,1.80
2023-05-01T21:08:54.757Z,1.75
2023-05-01T21:13:11.075Z,1.67
2023-05-01T21:17:27.834Z,1.55
2023-05-01T21:21:44.191Z,1.70
2023-05-01T21:26:00.533Z,1.55
2023-05-01T21:30:19.599Z,1.90
2023-05-01T21:34:36.007Z,1.70
2023-05-01T21:38:52.182Z,1.90
2023-05-01T21:43:09.281Z,1.90
2023-05-01T21:47:27.086Z,1.73
2023-05-01T21:51:43.413Z,1.80
2023-05-01T21:55:59.757Z,1.70
2023-05-01T22:00:16.492Z,1.73
2023-05-01T22:04:32.822Z,1.52
2023-05-01T22:08:49.067Z,1.70
2023-05-01T22:13:06.543Z,1.80
2023-05-01T22:17:26.496Z,1.60
2023-05-01T22:21:42.975Z,1.90
2023-05-01T22:26:02.149Z,1.73
2023-05-01T22:30:18.506Z,2.03
2023-05-01T22:34:34.787Z,1.60
2023-05-01T22:38:51.360Z,1.60
2023-05-01T22:43:08.360Z,1.67
2023-05-01T22:47:24.744Z,1.75
2023-05-01T22:51:41.034Z,1.80
2023-05-01T22:55:57.778Z,1.60
2023-05-01T23:00:14.505Z,1.95
2023-05-01T23:04:32.341Z,1.60
2023-05-01T23:08:52.901Z,1.62
2023-05-01T23:13:19.939Z,2.00
2023-05-01T23:17:36.498Z,2.20
2023-05-01T23:22:05.773Z,1.98
2023-05-01T23:26:27.012Z,2.15
2023-05-01T23:30:44.739Z,2.12
2023-05-01T23:35:27.412Z,2.30
2023-05-01T23:39:43.681Z,2.10
2023-05-01T23:43:59.939Z,2.25
2023-05-01T23:48:17.337Z,1.87
2023-05-01T23:52:33.574Z,2.05
2023-05-01T23:56:49.780Z,2.10
